createdAt,value
2018-05-07T00:01:18.417Z,1.50
2018-05-07T00:03:46.623Z,1.80
2018-05-07T00:06:15.057Z,1.87
2018-05-07T00:08:43.201Z,1.43
2018-05-07T00:11:11.391Z,1.83
2018-05-07T00:13:40.332Z,2.37
2018-05-07T00:16:08.570Z,2.23
2018-05-07T00:18:37.148Z,1.30
2018-05-07T00:21:06.088Z,1.50
2018-05-07T00:23:34.498Z,2.43
2018-05-07T00:26:03.494Z,2.63
2018-05-07T00:28:32.729Z,1.57
2018-05-07T00:31:01.733Z,1.63
2018-05-07T00:33:29.967Z,2.73
2018-05-07T00:35:59.129Z,2.17
2018-05-07T00:38:27.566Z,1.87
2018-05-07T00:40:55.760Z,1.37
2018-05-07T00:43:23.992Z,1.47
2018-05-07T00:45:52.961Z,1.43
2018-05-07T00:48:21.944Z,3.00
2018-05-07T00:50:51.183Z,1.37
2018-05-07T00:53:19.389Z,1.93
2018-05-07T00:55:47.558Z,1.77
2018-05-07T00:58:16.113Z,2.23
2018-05-07T01:00:44.321Z,3.90
2018-05-07T01:03:12.559Z,1.93
2018-05-07T01:05:40.738Z,2.60
2018-05-07T01:08:08.977Z,1.53
2018-05-07T01:10:37.923Z,2.00
2018-05-07T01:13:06.119Z,2.67
2018-05-07T01:15:35.133Z,1.40
2018-05-07T01:18:08.961Z,2.07
2018-05-07T01:20:42.723Z,3.30
2018-05-07T01:23:16.575Z,3.47
2018-05-07T01:25:50.286Z,4.20
2018-05-07T01:28:24.104Z,2.10
2018-05-07T01:30:57.787Z,6.97
2018-05-07T01:33:31.635Z,1.97
2018-05-07T01:36:05.494Z,4.03
2018-05-07T01:38:39.196Z,1.87
2018-05-07T01:41:13.028Z,2.53
2018-05-07T01:43:47.672Z,3.57
2018-05-07T01:46:21.453Z,2.20
2018-05-07T01:48:55.171Z,4.57
2018-05-07T01:51:29.061Z,1.93
2018-05-07T01:54:02.880Z,2.20
2018-05-07T01:56:36.650Z,2.60
2018-05-07T01:59:11.506Z,1.80
2018-05-07T02:01:45.438Z,2.13
2018-05-07T02:04:19.073Z,2.37
2018-05-07T02:06:52.856Z,2.03
2018-05-07T02:09:26.721Z,1.67
2018-05-07T02:12:00.530Z,3.63
2018-05-07T02:14:35.076Z,2.37
2018-05-07T02:17:09.024Z,3.73
2018-05-07T02:19:42.935Z,3.47
2018-05-07T02:22:16.890Z,2.33
2018-05-07T02:24:50.752Z,1.60
2018-05-07T02:27:24.593Z,2.73
2018-05-07T02:29:58.466Z,2.30
2018-05-07T02:32:32.307Z,3.03
2018-05-07T02:35:06.950Z,1.63
2018-05-07T02:37:40.810Z,3.90
2018-05-07T02:40:14.482Z,1.87
2018-05-07T02:42:48.452Z,1.87
2018-05-07T02:45:23.084Z,3.03
2018-05-07T02:47:56.989Z,2.47
2018-05-07T02:50:30.687Z,2.17
2018-05-07T02:53:05.443Z,1.93
2018-05-07T02:55:39.338Z,1.93
2018-05-07T02:58:15.058Z,2.10
2018-05-07T03:00:48.808Z,1.63
2018-05-07T03:03:22.823Z,1.93
2018-05-07T03:05:56.766Z,1.70
2018-05-07T03:08:30.539Z,4.30
2018-05-07T03:11:04.311Z,1.73
2018-05-07T03:13:38.087Z,1.80
2018-05-07T03:16:11.852Z,2.03
2018-05-07T03:18:45.737Z,2.43
2018-05-07T03:21:20.135Z,3.17
2018-05-07T03:23:53.910Z,4.63
2018-05-07T03:26:27.616Z,2.40
2018-05-07T03:29:01.361Z,2.67
2018-05-07T03:31:35.028Z,2.83
2018-05-07T03:34:08.717Z,5.87
2018-05-07T03:36:42.489Z,4.43
2018-05-07T03:39:16.361Z,2.67
2018-05-07T03:41:50.729Z,2.83
2018-05-07T03:44:24.731Z,2.17
2018-05-07T03:46:59.179Z,1.90
2018-05-07T03:49:32.982Z,3.17
2018-05-07T03:52:06.847Z,1.77
2018-05-07T03:54:40.560Z,4.03
2018-05-07T03:57:14.393Z,3.47
2018-05-07T03:59:48.355Z,2.77
2018-05-07T04:02:22.307Z,2.53
2018-05-07T04:04:56.096Z,3.30
2018-05-07T04:07:30.007Z,4.40
2018-05-07T04:10:03.763Z,2.40
2018-05-07T04:12:37.607Z,2.70
2018-05-07T04:15:11.552Z,1.83
2018-05-07T04:17:57.123Z,3.13
2018-05-07T04:20:42.897Z,3.13
2018-05-07T04:23:28.613Z,3.70
2018-05-07T04:26:02.638Z,2.97
2018-05-07T04:28:36.585Z,2.03
2018-05-07T04:31:10.411Z,4.77
2018-05-07T04:33:45.103Z,2.60
2018-05-07T04:36:19.275Z,2.03
2018-05-07T04:38:53.394Z,2.50
2018-05-07T04:41:27.931Z,3.37
2018-05-07T04:44:01.624Z,4.10
2018-05-07T04:46:35.540Z,2.57
2018-05-07T04:49:09.442Z,2.23
2018-05-07T04:51:45.009Z,1.80
2018-05-07T04:54:18.909Z,2.50
2018-05-07T04:56:52.588Z,2.37
2018-05-07T04:59:26.315Z,3.00
2018-05-07T05:02:00.138Z,2.07
2018-05-07T05:04:33.918Z,2.60
2018-05-07T05:07:07.752Z,2.13
2018-05-07T05:09:42.385Z,3.90
2018-05-07T05:12:16.939Z,2.97
2018-05-07T05:14:50.591Z,1.77
2018-05-07T05:17:24.448Z,2.97
2018-05-07T05:19:58.117Z,3.07
2018-05-07T05:22:31.945Z,4.13
2018-05-07T05:25:05.733Z,3.10
2018-05-07T05:27:39.495Z,3.43
2018-05-07T05:30:13.721Z,3.13
2018-05-07T05:32:47.421Z,2.83
2018-05-07T05:35:21.143Z,2.77
2018-05-07T05:37:55.855Z,2.37
2018-05-07T05:40:29.688Z,2.63
2018-05-07T05:43:04.397Z,3.83
2018-05-07T05:45:38.661Z,3.27
2018-05-07T05:48:12.495Z,5.13
2018-05-07T05:50:46.956Z,4.30
2018-05-07T05:53:21.041Z,6.17
2018-05-07T05:55:54.955Z,2.97
2018-05-07T05:58:28.865Z,3.83
2018-05-07T06:01:02.725Z,4.00
2018-05-07T06:03:36.886Z,6.80
2018-05-07T06:06:10.708Z,2.70
2018-05-07T06:08:44.643Z,4.83
2018-05-07T06:11:18.446Z,3.20
2018-05-07T06:13:52.253Z,3.00
2018-05-07T06:16:26.161Z,5.03
2018-05-07T06:18:59.990Z,3.33
2018-05-07T06:21:33.892Z,3.03
2018-05-07T06:24:07.708Z,4.23
2018-05-07T06:26:41.511Z,4.83
2018-05-07T06:29:15.228Z,6.27
2018-05-07T06:31:49.018Z,12.50
2018-05-07T06:34:22.825Z,7.03
2018-05-07T06:36:56.568Z,5.40
2018-05-07T06:39:30.316Z,5.63
2018-05-07T06:42:03.999Z,12.00
2018-05-07T06:44:37.825Z,8.37
2018-05-07T06:47:11.512Z,8.37
2018-05-07T06:49:39.744Z,11.43
2018-05-07T06:52:07.986Z,9.13
2018-05-07T06:54:36.195Z,8.00
2018-05-07T06:57:04.793Z,7.47
2018-05-07T06:59:33.457Z,7.00
2018-05-07T07:02:01.651Z,4.47
2018-05-07T07:04:29.961Z,2.90
2018-05-07T07:06:58.886Z,3.07
2018-05-07T07:09:27.046Z,8.00
2018-05-07T07:11:55.275Z,5.73
2018-05-07T07:14:23.475Z,4.87
2018-05-07T07:16:51.680Z,3.57
2018-05-07T07:19:19.908Z,8.77
2018-05-07T07:21:48.990Z,3.57
2018-05-07T07:24:17.168Z,5.23
2018-05-07T07:26:46.170Z,4.13
2018-05-07T07:29:14.336Z,2.93
2018-05-07T07:31:42.527Z,2.10
2018-05-07T07:34:10.713Z,3.03
2018-05-07T07:36:38.931Z,4.73
2018-05-07T07:39:07.115Z,4.33
2018-05-07T07:41:36.125Z,6.47
2018-05-07T07:44:05.067Z,4.33
2018-05-07T07:46:33.313Z,9.50
2018-05-07T07:49:01.505Z,8.67
2018-05-07T07:51:29.708Z,3.97
2018-05-07T07:53:57.927Z,7.83
2018-05-07T07:56:26.172Z,5.13
2018-05-07T07:58:55.136Z,3.67
2018-05-07T08:01:23.324Z,5.90
2018-05-07T08:03:52.296Z,4.00
2018-05-07T08:06:20.548Z,3.93
2018-05-07T08:08:48.759Z,5.47
2018-05-07T08:11:16.993Z,2.70
2018-05-07T08:13:45.154Z,5.30
2018-05-07T08:16:13.351Z,5.23
2018-05-07T08:18:41.558Z,3.97
2018-05-07T08:21:09.737Z,2.27
2018-05-07T08:23:38.681Z,3.97
2018-05-07T08:26:07.080Z,4.80
2018-05-07T08:28:35.283Z,3.03
2018-05-07T08:31:04.244Z,3.23
2018-05-07T08:33:32.479Z,3.40
2018-05-07T08:36:00.656Z,2.40
2018-05-07T08:38:28.892Z,3.27
2018-05-07T08:40:57.170Z,3.90
2018-05-07T08:43:26.297Z,2.93
2018-05-07T08:45:54.492Z,3.47
2018-05-07T08:48:22.743Z,2.47
2018-05-07T08:50:50.976Z,2.00
2018-05-07T08:53:19.934Z,1.93
2018-05-07T08:55:48.157Z,2.07
2018-05-07T08:58:16.400Z,3.47
2018-05-07T09:00:44.586Z,2.33
2018-05-07T09:03:13.566Z,2.00
2018-05-07T09:05:42.620Z,3.80
2018-05-07T09:08:10.945Z,2.53
2018-05-07T09:10:39.008Z,1.60
2018-05-07T09:13:07.173Z,2.77
2018-05-07T09:15:35.355Z,1.67
2018-05-07T09:18:03.558Z,1.83
2018-05-07T09:20:32.509Z,2.10
2018-05-07T09:23:00.747Z,1.60
2018-05-07T09:25:28.939Z,1.90
2018-05-07T09:27:57.266Z,1.60
2018-05-07T09:30:25.618Z,2.13
2018-05-07T09:32:53.787Z,1.50
2018-05-07T09:35:22.765Z,1.47
2018-05-07T09:37:50.941Z,2.07
2018-05-07T09:40:19.111Z,1.87
2018-05-07T09:42:47.313Z,1.67
2018-05-07T09:45:16.311Z,1.30
2018-05-07T09:47:45.366Z,1.23
2018-05-07T09:50:13.527Z,1.37
2018-05-07T09:52:41.785Z,3.00
2018-05-07T09:55:09.982Z,1.20
2018-05-07T09:57:38.215Z,1.70
2018-05-07T10:00:06.379Z,1.30
2018-05-07T10:02:34.614Z,3.53
2018-05-07T10:05:02.748Z,1.80
2018-05-07T10:07:30.979Z,1.90
2018-05-07T10:09:59.251Z,2.57
2018-05-07T10:12:27.364Z,2.80
2018-05-07T10:14:56.157Z,1.53
2018-05-07T10:17:24.346Z,1.57
2018-05-07T10:19:52.605Z,2.63
2018-05-07T10:22:20.800Z,1.77
2018-05-07T10:24:48.967Z,2.63
2018-05-07T10:27:17.178Z,2.40
2018-05-07T10:29:46.373Z,2.37
2018-05-07T10:32:14.538Z,1.93
2018-05-07T10:34:42.855Z,3.50
2018-05-07T10:37:11.100Z,2.47
2018-05-07T10:39:40.045Z,2.13
2018-05-07T10:42:08.230Z,2.00
2018-05-07T10:44:36.451Z,2.17
2018-05-07T10:47:04.618Z,3.93
2018-05-07T10:49:32.841Z,2.93
2018-05-07T10:52:00.996Z,1.43
2018-05-07T10:54:29.183Z,4.07
2018-05-07T10:56:57.386Z,4.20
2018-05-07T10:59:25.568Z,3.60
2018-05-07T11:01:53.792Z,3.23
2018-05-07T11:04:22.780Z,5.30
2018-05-07T11:06:51.361Z,3.40
2018-05-07T11:09:19.690Z,1.53
2018-05-07T11:11:48.122Z,2.10
2018-05-07T11:14:16.297Z,3.23
2018-05-07T11:16:44.489Z,3.47
2018-05-07T11:19:12.658Z,2.60
2018-05-07T11:21:40.831Z,2.77
2018-05-07T11:24:09.007Z,3.57
2018-05-07T11:26:37.237Z,4.97
2018-05-07T11:29:05.543Z,3.50
2018-05-07T11:31:33.731Z,3.17
2018-05-07T11:34:01.917Z,5.03
2018-05-07T11:36:30.134Z,5.53
2018-05-07T11:38:58.411Z,6.30
2018-05-07T11:41:26.651Z,7.53
2018-05-07T11:43:55.637Z,3.80
2018-05-07T11:46:23.853Z,2.50
2018-05-07T11:48:52.034Z,6.57
2018-05-07T11:51:20.217Z,2.67
2018-05-07T11:53:48.386Z,2.73
2018-05-07T11:56:16.602Z,4.30
2018-05-07T11:58:45.593Z,6.17
2018-05-07T12:01:13.768Z,2.10
2018-05-07T12:03:42.794Z,1.97
2018-05-07T12:06:10.998Z,2.77
2018-05-07T12:08:39.169Z,2.13
2018-05-07T12:11:07.343Z,2.20
2018-05-07T12:13:35.604Z,3.80
2018-05-07T12:16:03.846Z,4.77
2018-05-07T12:18:32.063Z,2.23
2018-05-07T12:21:00.248Z,2.50
2018-05-07T12:23:28.423Z,1.90
2018-05-07T12:25:56.637Z,2.53
2018-05-07T12:28:24.887Z,3.47
2018-05-07T12:30:53.077Z,2.20
2018-05-07T12:33:22.469Z,3.83
2018-05-07T12:35:50.676Z,2.40
2018-05-07T12:38:18.877Z,3.83
2018-05-07T12:40:47.064Z,3.20
2018-05-07T12:43:15.268Z,3.33
2018-05-07T12:45:44.237Z,2.90
2018-05-07T12:48:12.492Z,2.20
2018-05-07T12:50:40.734Z,3.47
2018-05-07T12:53:08.938Z,3.07
2018-05-07T12:55:37.193Z,2.50
2018-05-07T12:58:05.402Z,2.47
2018-05-07T13:00:33.761Z,3.33
2018-05-07T13:03:01.999Z,3.70
2018-05-07T13:05:30.213Z,4.40
2018-05-07T13:07:58.389Z,2.73
2018-05-07T13:10:26.607Z,2.83
2018-05-07T13:12:55.590Z,3.17
2018-05-07T13:15:23.832Z,1.87
2018-05-07T13:17:52.132Z,2.00
2018-05-07T13:20:20.355Z,3.63
2018-05-07T13:22:48.570Z,2.10
2018-05-07T13:25:16.859Z,2.50
2018-05-07T13:27:45.041Z,2.43
2018-05-07T13:30:14.077Z,3.40
2018-05-07T13:32:42.278Z,2.03
2018-05-07T13:35:10.472Z,1.93
2018-05-07T13:37:39.442Z,5.20
2018-05-07T13:40:07.625Z,2.50
2018-05-07T13:42:35.903Z,2.83
2018-05-07T13:45:04.906Z,2.63
2018-05-07T13:47:33.874Z,1.93
2018-05-07T13:50:02.154Z,1.70
2018-05-07T13:52:30.513Z,3.17
2018-05-07T13:54:58.690Z,3.57
2018-05-07T13:57:26.931Z,2.43
2018-05-07T13:59:55.133Z,2.73
2018-05-07T14:02:23.323Z,3.27
2018-05-07T14:04:51.561Z,3.40
2018-05-07T14:07:19.763Z,3.37
2018-05-07T14:09:47.933Z,3.80
2018-05-07T14:12:16.106Z,1.77
2018-05-07T14:14:44.284Z,2.73
2018-05-07T14:17:12.483Z,1.73
2018-05-07T14:19:41.573Z,3.90
2018-05-07T14:22:09.825Z,5.13
2018-05-07T14:24:38.045Z,6.17
2018-05-07T14:27:06.304Z,2.70
2018-05-07T14:29:34.576Z,3.13
2018-05-07T14:32:03.547Z,3.13
2018-05-07T14:34:32.601Z,4.10
2018-05-07T14:37:01.001Z,4.53
2018-05-07T14:39:30.017Z,3.23
2018-05-07T14:41:58.968Z,5.40
2018-05-07T14:44:27.258Z,6.53
2018-05-07T14:46:55.438Z,5.67
2018-05-07T14:49:23.710Z,6.07
2018-05-07T14:51:51.963Z,7.47
2018-05-07T14:54:20.169Z,8.00
2018-05-07T14:56:48.425Z,8.60
2018-05-07T14:59:16.635Z,9.73
2018-05-07T15:01:45.628Z,6.90
2018-05-07T15:04:14.650Z,8.97
2018-05-07T15:06:42.906Z,8.60
2018-05-07T15:09:11.144Z,8.90
2018-05-07T15:11:39.339Z,10.80
2018-05-07T15:14:20.829Z,9.73
2018-05-07T15:16:49.085Z,10.50
2018-05-07T15:19:17.488Z,10.47
2018-05-07T15:21:45.694Z,12.33
2018-05-07T15:24:13.896Z,12.97
2018-05-07T15:26:42.092Z,13.03
2018-05-07T15:29:11.141Z,14.43
2018-05-07T15:31:39.338Z,14.07
2018-05-07T15:34:07.528Z,11.60
2018-05-07T15:36:36.502Z,13.00
2018-05-07T15:39:04.868Z,15.07
2018-05-07T15:41:34.802Z,15.37
2018-05-07T15:44:03.059Z,15.83
2018-05-07T15:46:31.254Z,16.83
2018-05-07T15:49:00.281Z,20.23
2018-05-07T15:51:28.504Z,16.63
2018-05-07T15:53:56.710Z,15.87
2018-05-07T15:56:25.684Z,17.70
2018-05-07T15:58:53.948Z,17.83
2018-05-07T16:01:22.993Z,17.47
2018-05-07T16:03:51.188Z,18.53
2018-05-07T16:06:19.563Z,12.97
2018-05-07T16:08:47.795Z,13.83
2018-05-07T16:11:16.004Z,17.23
2018-05-07T16:13:48.972Z,17.53
2018-05-07T16:16:17.167Z,18.73
2018-05-07T16:18:45.450Z,22.57
2018-05-07T16:21:13.711Z,15.33
2018-05-07T16:23:41.917Z,14.83
2018-05-07T16:26:10.204Z,14.90
2018-05-07T16:28:38.492Z,13.50
2018-05-07T16:31:07.784Z,19.23
2018-05-07T16:33:35.912Z,14.33
2018-05-07T16:36:06.166Z,17.43
2018-05-07T16:38:34.553Z,13.47
2018-05-07T16:41:02.726Z,16.23
2018-05-07T16:43:31.713Z,15.83
2018-05-07T16:46:00.761Z,19.90
2018-05-07T16:48:29.052Z,15.87
2018-05-07T16:50:58.020Z,17.90
2018-05-07T16:53:26.241Z,18.27
2018-05-07T16:55:54.438Z,18.30
2018-05-07T16:58:22.691Z,16.60
2018-05-07T17:00:50.892Z,15.20
2018-05-07T17:03:19.115Z,17.00
2018-05-07T17:05:47.363Z,17.57
2018-05-07T17:08:16.396Z,16.17
2018-05-07T17:10:44.587Z,17.27
2018-05-07T17:13:12.817Z,16.43
2018-05-07T17:15:41.706Z,20.83
2018-05-07T17:18:09.934Z,17.70
2018-05-07T17:20:39.062Z,14.70
2018-05-07T17:23:07.309Z,17.23
2018-05-07T17:25:35.516Z,13.70
2018-05-07T17:28:03.800Z,16.80
2018-05-07T17:30:32.102Z,16.97
2018-05-07T17:33:00.434Z,13.57
2018-05-07T17:35:28.690Z,17.53
2018-05-07T17:37:56.945Z,21.80
2018-05-07T17:40:25.901Z,12.50
2018-05-07T17:42:54.126Z,18.23
2018-05-07T17:45:34.161Z,10.87
2018-05-07T17:48:14.935Z,16.53
2018-05-07T17:50:43.252Z,15.10
2018-05-07T17:53:11.622Z,13.57
2018-05-07T17:55:39.839Z,15.53
2018-05-07T17:58:08.060Z,13.87
2018-05-07T18:00:36.275Z,16.67
2018-05-07T18:03:04.530Z,17.63
2018-05-07T18:05:32.733Z,14.10
2018-05-07T18:08:01.713Z,14.20
2018-05-07T18:10:29.938Z,10.00
2018-05-07T18:12:58.875Z,15.60
2018-05-07T18:15:27.111Z,16.07
2018-05-07T18:17:55.335Z,12.57
2018-05-07T18:20:23.569Z,14.90
2018-05-07T18:22:51.762Z,11.83
2018-05-07T18:25:21.425Z,13.77
2018-05-07T18:27:50.412Z,15.73
2018-05-07T18:30:18.640Z,11.87
2018-05-07T18:32:46.988Z,11.30
2018-05-07T18:35:15.194Z,14.47
2018-05-07T18:37:43.397Z,14.30
2018-05-07T18:40:12.436Z,15.80
2018-05-07T18:42:40.697Z,16.50
2018-05-07T18:45:10.119Z,13.10
2018-05-07T18:47:38.424Z,14.20
2018-05-07T18:50:06.752Z,15.37
2018-05-07T18:52:34.996Z,16.70
2018-05-07T18:55:03.253Z,14.47
2018-05-07T18:57:31.643Z,16.33
2018-05-07T18:59:59.861Z,16.73
2018-05-07T19:02:28.071Z,14.03
2018-05-07T19:04:56.262Z,15.93
2018-05-07T19:07:25.260Z,17.40
2018-05-07T19:09:54.235Z,16.50
2018-05-07T19:12:22.449Z,17.07
2018-05-07T19:14:50.725Z,13.63
2018-05-07T19:17:18.952Z,19.27
2018-05-07T19:19:47.949Z,13.43
2018-05-07T19:22:16.172Z,17.37
2018-05-07T19:24:44.370Z,17.17
2018-05-07T19:27:12.697Z,11.27
2018-05-07T19:29:41.674Z,13.90
2018-05-07T19:32:09.934Z,12.77
2018-05-07T19:34:38.957Z,13.17
2018-05-07T19:37:07.137Z,11.00
2018-05-07T19:39:35.371Z,13.33
2018-05-07T19:42:03.610Z,13.50
2018-05-07T19:44:31.920Z,18.63
2018-05-07T19:47:00.175Z,11.83
2018-05-07T19:49:30.644Z,12.30
2018-05-07T19:52:00.327Z,14.10
2018-05-07T19:54:29.351Z,10.60
2018-05-07T19:56:57.568Z,12.17
2018-05-07T19:59:25.807Z,11.67
2018-05-07T20:01:54.103Z,18.10
2018-05-07T20:04:22.346Z,10.63
2018-05-07T20:06:51.387Z,11.60
2018-05-07T20:09:20.904Z,13.87
2018-05-07T20:11:49.242Z,10.73
2018-05-07T20:14:17.701Z,12.90
2018-05-07T20:16:45.845Z,11.07
2018-05-07T20:19:14.841Z,10.63
2018-05-07T20:21:43.969Z,14.50
2018-05-07T20:24:14.156Z,10.70
2018-05-07T20:26:42.528Z,12.57
2018-05-07T20:29:11.264Z,12.00
2018-05-07T20:31:39.665Z,14.57
2018-05-07T20:34:07.956Z,15.17
2018-05-07T20:36:37.601Z,14.30
2018-05-07T20:39:05.937Z,11.07
2018-05-07T20:41:34.540Z,24.20
2018-05-07T20:44:02.852Z,13.20
2018-05-07T20:46:31.088Z,9.97
2018-05-07T20:48:59.349Z,11.63
2018-05-07T20:51:27.777Z,17.10
2018-05-07T20:53:56.005Z,13.83
2018-05-07T20:56:25.130Z,14.37
2018-05-07T20:58:54.077Z,19.83
2018-05-07T21:01:22.359Z,15.03
2018-05-07T21:03:51.254Z,13.93
2018-05-07T21:06:19.429Z,13.13
2018-05-07T21:08:48.440Z,21.63
2018-05-07T21:11:17.557Z,17.63
2018-05-07T21:13:45.759Z,18.10
2018-05-07T21:16:13.958Z,15.07
2018-05-07T21:18:42.140Z,17.83
2018-05-07T21:21:11.165Z,14.63
2018-05-07T21:23:39.363Z,12.27
2018-05-07T21:26:08.360Z,18.27
2018-05-07T21:28:36.586Z,13.50
2018-05-07T21:31:05.912Z,19.30
2018-05-07T21:33:34.125Z,16.53
2018-05-07T21:36:02.555Z,13.87
2018-05-07T21:38:31.715Z,15.07
2018-05-07T21:41:01.019Z,14.07
2018-05-07T21:43:33.157Z,16.67
2018-05-07T21:46:01.550Z,15.80
2018-05-07T21:48:29.809Z,19.43
2018-05-07T21:50:58.139Z,16.03
2018-05-07T21:53:27.332Z,16.63
2018-05-07T21:55:56.321Z,17.37
2018-05-07T21:58:25.552Z,16.93
2018-05-07T22:00:53.895Z,18.80
2018-05-07T22:03:23.003Z,19.83
2018-05-07T22:05:51.396Z,13.80
2018-05-07T22:08:20.329Z,18.58
2018-05-07T22:10:48.736Z,15.63
2018-05-07T22:13:17.050Z,15.63
2018-05-07T22:15:45.852Z,20.07
2018-05-07T22:18:14.220Z,13.67
2018-05-07T22:20:42.823Z,15.43
2018-05-07T22:23:11.239Z,14.60
2018-05-07T22:25:39.521Z,20.67
2018-05-07T22:28:07.937Z,18.87
2018-05-07T22:30:37.460Z,15.93
2018-05-07T22:33:06.400Z,18.50
2018-05-07T22:35:34.836Z,15.40
2018-05-07T22:38:03.194Z,17.27
2018-05-07T22:40:31.493Z,14.40
2018-05-07T22:43:00.760Z,16.37
2018-05-07T22:45:29.168Z,16.60
2018-05-07T22:47:58.313Z,20.53
2018-05-07T22:50:26.719Z,14.13
2018-05-07T22:52:55.918Z,12.77
2018-05-07T22:55:24.406Z,14.90
2018-05-07T22:57:52.885Z,16.40
2018-05-07T23:00:21.235Z,11.63
2018-05-07T23:02:55.789Z,9.60
2018-05-07T23:05:29.735Z,14.30
2018-05-07T23:08:03.389Z,13.50
2018-05-07T23:10:37.588Z,15.27
2018-05-07T23:13:11.432Z,10.70
2018-05-07T23:15:45.344Z,13.87
2018-05-07T23:18:19.410Z,13.60
2018-05-07T23:20:54.250Z,13.20
2018-05-07T23:23:28.066Z,11.90
2018-05-07T23:26:02.028Z,9.97
2018-05-07T23:28:36.833Z,15.50
2018-05-07T23:31:11.617Z,11.17
2018-05-07T23:33:45.666Z,9.40
2018-05-07T23:36:14.665Z,9.40
2018-05-07T23:38:43.743Z,11.10
2018-05-07T23:41:12.230Z,11.53
2018-05-07T23:43:41.367Z,9.17
2018-05-07T23:46:09.635Z,10.17
2018-05-07T23:48:37.987Z,14.13
2018-05-07T23:51:07.045Z,10.27
2018-05-07T23:53:35.519Z,9.70
2018-05-07T23:56:03.800Z,10.20
2018-05-07T23:58:32.769Z,15.30
